createdAt,value
2018-02-13T00:00:44.196Z,98411.77
2018-02-13T00:03:13.280Z,98410.38
2018-02-13T00:05:42.432Z,98401.78
2018-02-13T00:08:10.785Z,98407.01
2018-02-13T00:10:39.108Z,98405.17
2018-02-13T00:13:07.480Z,98402.30
2018-02-13T00:15:35.796Z,98404.00
2018-02-13T00:18:04.124Z,98393.98
2018-02-13T00:20:33.360Z,98391.16
2018-02-13T00:23:01.687Z,98390.48
2018-02-13T00:25:30.025Z,98390.53
2018-02-13T00:27:59.153Z,98384.83
2018-02-13T00:30:27.479Z,98386.05
2018-02-13T00:32:55.812Z,98385.92
2018-02-13T00:35:24.219Z,98383.66
2018-02-13T00:37:52.559Z,98384.45
2018-02-13T00:40:20.889Z,98388.97
2018-02-13T00:42:49.383Z,98391.49
2018-02-13T00:45:17.708Z,98391.84
2018-02-13T00:47:46.075Z,98391.35
2018-02-13T00:50:14.444Z,98391.03
2018-02-13T00:52:42.751Z,98388.94
2018-02-13T00:55:11.061Z,98388.28
2018-02-13T00:57:39.415Z,98387.52
2018-02-13T01:00:07.735Z,98391.66
2018-02-13T01:02:36.048Z,98390.95
2018-02-13T01:05:04.425Z,98396.30
2018-02-13T01:07:32.747Z,98397.47
2018-02-13T01:10:01.063Z,98396.02
2018-02-13T01:12:30.176Z,98398.61
2018-02-13T01:14:58.488Z,98394.19
2018-02-13T01:17:26.807Z,98393.53
2018-02-13T01:19:55.171Z,98389.77
2018-02-13T01:22:23.484Z,98391.55
2018-02-13T01:24:51.840Z,98393.14
2018-02-13T01:27:20.206Z,98393.20
2018-02-13T01:29:48.531Z,98389.48
2018-02-13T01:32:16.871Z,98391.34
2018-02-13T01:34:45.197Z,98390.77
2018-02-13T01:37:13.578Z,98389.08
2018-02-13T01:39:42.024Z,98386.89
2018-02-13T01:42:11.501Z,98383.05
2018-02-13T01:44:40.140Z,98387.04
2018-02-13T01:47:08.957Z,98386.67
2018-02-13T01:49:37.494Z,98386.69
2018-02-13T01:52:05.840Z,98383.75
2018-02-13T01:54:34.983Z,98380.25
2018-02-13T01:57:03.308Z,98376.70
2018-02-13T01:59:31.864Z,98379.45
2018-02-13T02:02:00.367Z,98382.80
2018-02-13T02:04:28.683Z,98375.60
2018-02-13T02:06:57.000Z,98380.91
2018-02-13T02:09:25.344Z,98380.91
2018-02-13T02:11:53.664Z,98384.11
2018-02-13T02:14:22.044Z,98377.83
2018-02-13T02:16:50.376Z,98379.83
2018-02-13T02:19:18.718Z,98377.58
2018-02-13T02:21:47.087Z,98372.67
2018-02-13T02:24:15.442Z,98368.88
2018-02-13T02:26:44.283Z,98368.61
2018-02-13T02:29:12.886Z,98373.73
2018-02-13T02:31:41.208Z,98366.53
2018-02-13T02:34:09.529Z,98365.74
2018-02-13T02:36:37.907Z,98366.55
2018-02-13T02:39:07.580Z,98363.66
2018-02-13T02:41:36.675Z,98358.29
2018-02-13T02:44:05.105Z,98358.67
2018-02-13T02:46:33.543Z,98355.78
2018-02-13T02:49:01.939Z,98360.33
2018-02-13T02:51:30.270Z,98352.05
2018-02-13T02:53:58.599Z,98355.58
2018-02-13T02:56:26.947Z,98354.92
2018-02-13T02:58:55.272Z,98349.80
2018-02-13T03:01:23.637Z,98354.48
2018-02-13T03:03:52.059Z,98348.91
2018-02-13T03:06:20.592Z,98346.52
2018-02-13T03:08:49.226Z,98348.19
2018-02-13T03:11:17.909Z,98342.30
2018-02-13T03:13:46.612Z,98344.64
2018-02-13T03:16:15.266Z,98340.70
2018-02-13T03:18:43.747Z,98338.50
2018-02-13T03:21:12.063Z,98338.47
2018-02-13T03:23:40.396Z,98329.29
2018-02-13T03:26:08.753Z,98335.19
2018-02-13T03:28:37.839Z,98336.23
2018-02-13T03:31:06.956Z,98331.41
2018-02-13T03:33:35.831Z,98327.95
2018-02-13T03:36:04.911Z,98327.49
2018-02-13T03:38:33.295Z,98328.48
2018-02-13T03:41:02.237Z,98327.88
2018-02-13T03:43:30.556Z,98327.73
2018-02-13T03:45:59.814Z,98323.99
2018-02-13T03:48:28.125Z,98321.38
2018-02-13T03:50:56.434Z,98318.23
2018-02-13T03:53:25.535Z,98320.09
2018-02-13T03:55:54.619Z,98322.98
2018-02-13T03:58:23.743Z,98319.38
2018-02-13T04:00:52.058Z,98318.84
2018-02-13T04:03:20.370Z,98320.24
2018-02-13T04:05:48.740Z,98316.76
2018-02-13T04:08:17.055Z,98315.31
2018-02-13T04:10:45.372Z,98316.28
2018-02-13T04:13:13.740Z,98309.80
2018-02-13T04:15:42.047Z,98314.19
2018-02-13T04:18:10.359Z,98308.83
2018-02-13T04:20:38.702Z,98306.91
2018-02-13T04:23:07.007Z,98306.98
2018-02-13T04:25:35.347Z,98298.44
2018-02-13T04:28:03.679Z,98301.84
2018-02-13T04:30:32.236Z,98305.81
2018-02-13T04:33:00.643Z,98303.19
2018-02-13T04:35:29.300Z,98300.73
2018-02-13T04:37:57.653Z,98298.11
2018-02-13T04:40:25.991Z,98300.06
2018-02-13T04:42:54.303Z,98293.82
2018-02-13T04:45:22.648Z,98293.40
2018-02-13T04:47:50.957Z,98288.10
2018-02-13T04:50:19.379Z,98290.38
2018-02-13T04:52:47.707Z,98288.30
2018-02-13T04:55:16.023Z,98293.20
2018-02-13T04:57:44.406Z,98284.98
2018-02-13T05:00:13.487Z,98284.53
2018-02-13T05:02:41.847Z,98283.81
2018-02-13T05:05:10.202Z,98286.22
2018-02-13T05:07:38.515Z,98280.77
2018-02-13T05:10:06.873Z,98287.41
2018-02-13T05:12:35.216Z,98282.72
2018-02-13T05:15:03.595Z,98296.97
2018-02-13T05:17:31.905Z,98289.91
2018-02-13T05:20:00.210Z,98288.31
2018-02-13T05:22:28.543Z,98290.19
2018-02-13T05:24:56.871Z,98288.41
2018-02-13T05:27:25.979Z,98294.25
2018-02-13T05:29:55.075Z,98293.86
2018-02-13T05:32:24.186Z,98296.78
2018-02-13T05:34:53.099Z,98292.47
2018-02-13T05:37:21.416Z,98293.55
2018-02-13T05:39:49.783Z,98290.69
2018-02-13T05:42:18.288Z,98284.55
2018-02-13T05:44:46.624Z,98284.29
2018-02-13T05:47:14.958Z,98277.59
2018-02-13T05:49:43.275Z,98288.30
2018-02-13T05:52:11.696Z,98279.97
2018-02-13T05:54:40.038Z,98283.11
2018-02-13T05:57:08.359Z,98282.02
2018-02-13T05:59:36.681Z,98278.25
2018-02-13T06:02:05.192Z,98282.49
2018-02-13T06:04:33.798Z,98279.21
2018-02-13T06:07:02.354Z,98275.58
2018-02-13T06:09:30.874Z,98277.57
2018-02-13T06:11:59.528Z,98275.90
2018-02-13T06:14:27.871Z,98275.67
2018-02-13T06:16:56.186Z,98275.95
2018-02-13T06:19:24.551Z,98275.44
2018-02-13T06:21:52.867Z,98281.36
2018-02-13T06:24:21.343Z,98279.51
2018-02-13T06:26:49.783Z,98282.24
2018-02-13T06:29:18.115Z,98275.66
2018-02-13T06:31:46.812Z,98280.25
2018-02-13T06:34:15.549Z,98280.73
2018-02-13T06:36:44.106Z,98280.83
2018-02-13T06:39:13.177Z,98279.81
2018-02-13T06:41:42.954Z,98282.77
2018-02-13T06:44:11.358Z,98286.22
2018-02-13T06:46:40.109Z,98286.63
2018-02-13T06:49:08.896Z,98279.56
2018-02-13T06:51:38.190Z,98284.33
2018-02-13T06:54:06.543Z,98278.99
2018-02-13T06:56:34.923Z,98279.46
2018-02-13T06:59:03.574Z,98274.17
2018-02-13T07:01:32.269Z,98282.07
2018-02-13T07:04:01.166Z,98282.53
2018-02-13T07:06:30.466Z,98283.44
2018-02-13T07:08:59.421Z,98280.16
2018-02-13T07:11:27.767Z,98275.93
2018-02-13T07:13:56.086Z,98283.43
2018-02-13T07:16:24.749Z,98282.77
2018-02-13T07:18:53.449Z,98276.45
2018-02-13T07:21:21.980Z,98277.59
2018-02-13T07:23:50.666Z,98279.34
2018-02-13T07:26:19.417Z,98271.13
2018-02-13T07:28:47.951Z,98272.55
2018-02-13T07:31:16.688Z,98273.14
2018-02-13T07:33:45.027Z,98268.45
2018-02-13T07:36:13.517Z,98271.75
2018-02-13T07:38:42.671Z,98265.60
2018-02-13T07:41:10.993Z,98263.17
2018-02-13T07:43:39.316Z,98271.32
2018-02-13T07:46:07.667Z,98269.93
2018-02-13T07:48:36.752Z,98263.59
2018-02-13T07:51:05.108Z,98260.84
2018-02-13T07:53:33.440Z,98261.63
2018-02-13T07:56:01.767Z,98257.50
2018-02-13T07:58:30.128Z,98257.30
2018-02-13T08:00:58.438Z,98256.71
2018-02-13T08:03:26.800Z,98258.19
2018-02-13T08:05:55.155Z,98255.30
2018-02-13T08:08:23.475Z,98258.39
2018-02-13T08:10:51.827Z,98255.92
2018-02-13T08:13:20.139Z,98255.37
2018-02-13T08:15:49.284Z,98249.55
2018-02-13T08:18:17.599Z,98247.55
2018-02-13T08:20:45.928Z,98249.33
2018-02-13T08:23:14.264Z,98248.64
2018-02-13T08:25:42.582Z,98251.08
2018-02-13T08:28:11.679Z,98241.95
2018-02-13T08:30:39.988Z,98241.92
2018-02-13T08:33:08.662Z,98238.44
2018-02-13T08:35:37.033Z,98234.78
2018-02-13T08:38:05.347Z,98227.86
2018-02-13T08:40:33.664Z,98228.94
2018-02-13T08:43:02.040Z,98220.84
2018-02-13T08:45:30.368Z,98216.72
2018-02-13T08:47:58.691Z,98217.15
2018-02-13T08:50:27.006Z,98212.95
2018-02-13T08:52:55.327Z,98206.31
2018-02-13T08:55:23.643Z,98205.70
2018-02-13T08:57:51.995Z,98200.17
2018-02-13T09:00:21.084Z,98193.55
2018-02-13T09:02:50.175Z,98191.59
2018-02-13T09:05:19.314Z,98196.98
2018-02-13T09:07:47.647Z,98198.05
2018-02-13T09:10:15.959Z,98191.13
2018-02-13T09:12:44.307Z,98185.03
2018-02-13T09:15:12.619Z,98180.13
2018-02-13T09:17:40.979Z,98182.78
2018-02-13T09:20:10.259Z,98180.87
2018-02-13T09:22:38.587Z,98183.08
2018-02-13T09:25:06.908Z,98180.71
2018-02-13T09:27:35.342Z,98180.48
2018-02-13T09:30:03.660Z,98173.14
2018-02-13T09:32:32.735Z,98168.92
2018-02-13T09:35:01.111Z,98174.46
2018-02-13T09:37:29.492Z,98162.91
2018-02-13T09:39:57.807Z,98157.78
2018-02-13T09:42:27.091Z,98157.31
2018-02-13T09:44:55.407Z,98152.47
2018-02-13T09:47:23.724Z,98154.13
2018-02-13T09:49:52.067Z,98148.94
2018-02-13T09:52:20.379Z,98147.64
2018-02-13T09:54:48.697Z,98143.59
2018-02-13T09:57:17.058Z,98143.45
2018-02-13T09:59:45.372Z,98139.27
2018-02-13T10:02:13.690Z,98131.89
2018-02-13T10:04:42.055Z,98139.75
2018-02-13T10:07:10.367Z,98132.38
2018-02-13T10:09:38.683Z,98132.25
2018-02-13T10:12:07.071Z,98125.34
2018-02-13T10:14:35.370Z,98123.78
2018-02-13T10:17:03.677Z,98123.24
2018-02-13T10:19:32.039Z,98119.13
2018-02-13T10:22:00.340Z,98111.66
2018-02-13T10:24:28.644Z,98113.03
2018-02-13T10:26:57.020Z,98114.05
2018-02-13T10:29:25.325Z,98104.70
2018-02-13T10:31:53.653Z,98100.08
2018-02-13T10:34:21.999Z,98096.86
2018-02-13T10:36:50.299Z,98095.81
2018-02-13T10:39:18.368Z,98084.84
2018-02-13T10:41:46.701Z,98079.89
2018-02-13T10:44:15.005Z,98075.72
2018-02-13T10:46:44.539Z,98071.88
2018-02-13T10:49:12.840Z,98068.45
2018-02-13T10:51:41.139Z,98061.25
2018-02-13T10:54:09.480Z,98059.69
2018-02-13T10:56:37.818Z,98057.22
2018-02-13T10:59:06.163Z,98055.17
2018-02-13T11:01:38.139Z,98052.83
2018-02-13T11:04:06.446Z,98049.61
2018-02-13T11:06:34.780Z,98041.80
2018-02-13T11:09:03.585Z,98036.65
2018-02-13T11:11:31.878Z,98031.59
2018-02-13T11:14:00.175Z,98023.15
2018-02-13T11:16:28.531Z,98019.72
2018-02-13T11:18:56.830Z,98013.95
2018-02-13T11:21:25.131Z,98010.45
2018-02-13T11:23:54.420Z,98000.12
2018-02-13T11:26:22.706Z,97990.34
2018-02-13T11:28:51.775Z,97981.13
2018-02-13T11:31:20.119Z,97985.12
2018-02-13T11:33:48.419Z,97982.91
2018-02-13T11:36:16.714Z,97983.30
2018-02-13T11:38:45.548Z,97976.98
2018-02-13T11:41:13.855Z,97968.86
2018-02-13T11:43:42.303Z,97966.17
2018-02-13T11:46:10.613Z,97967.80
2018-02-13T11:48:38.916Z,97965.60
2018-02-13T11:51:07.247Z,97961.08
2018-02-13T11:53:35.551Z,97953.53
2018-02-13T11:56:04.666Z,97950.50
2018-02-13T11:58:32.972Z,97946.47
2018-02-13T12:01:02.044Z,97942.52
2018-02-13T12:03:30.388Z,97938.27
2018-02-13T12:05:58.682Z,97934.54
2018-02-13T12:08:26.993Z,97926.61
2018-02-13T12:10:55.407Z,97924.09
2018-02-13T12:13:23.702Z,97918.30
2018-02-13T12:15:52.015Z,97914.98
2018-02-13T12:18:20.405Z,97912.95
2018-02-13T12:20:49.491Z,97911.33
2018-02-13T12:23:18.551Z,97897.99
2018-02-13T12:25:46.899Z,97899.17
2018-02-13T12:28:15.203Z,97894.17
2018-02-13T12:30:43.502Z,97893.92
2018-02-13T12:33:11.935Z,97882.09
2018-02-13T12:35:40.231Z,97882.95
2018-02-13T12:38:08.557Z,97875.52
2018-02-13T12:40:36.999Z,97871.25
2018-02-13T12:43:05.317Z,97863.02
2018-02-13T12:45:33.624Z,97869.20
2018-02-13T12:48:01.966Z,97862.02
2018-02-13T12:50:31.026Z,97860.20
2018-02-13T12:52:59.327Z,97855.58
2018-02-13T12:55:27.907Z,97847.31
2018-02-13T12:57:56.227Z,97848.38
2018-02-13T13:00:24.536Z,97836.95
2018-02-13T13:02:52.878Z,97836.09
2018-02-13T13:05:21.180Z,97830.80
2018-02-13T13:07:49.483Z,97828.53
2018-02-13T13:10:17.864Z,97830.34
2018-02-13T13:12:46.194Z,97821.74
2018-02-13T13:15:14.482Z,97816.22
2018-02-13T13:17:42.860Z,97822.82
2018-02-13T13:20:11.175Z,97810.83
2018-02-13T13:22:39.482Z,97803.19
2018-02-13T13:25:08.651Z,97795.70
2018-02-13T13:27:36.954Z,97801.41
2018-02-13T13:30:05.255Z,97790.77
2018-02-13T13:32:33.683Z,97796.03
2018-02-13T13:35:01.993Z,97794.55
2018-02-13T13:37:30.298Z,97782.78
2018-02-13T13:39:58.671Z,97782.13
2018-02-13T13:42:26.976Z,97775.14
2018-02-13T13:44:55.271Z,97772.45
2018-02-13T13:47:23.643Z,97767.14
2018-02-13T13:49:51.975Z,97758.70
2018-02-13T13:52:20.267Z,97749.15
2018-02-13T13:54:48.635Z,97747.97
2018-02-13T13:57:16.947Z,97747.58
2018-02-13T13:59:45.260Z,97739.94
2018-02-13T14:02:14.383Z,97745.97
2018-02-13T14:04:42.748Z,97752.10
2018-02-13T14:07:11.042Z,97745.42
2018-02-13T14:09:39.413Z,97747.77
2018-02-13T14:12:08.658Z,97742.86
2018-02-13T14:14:36.973Z,97737.31
2018-02-13T14:17:06.235Z,97736.05
2018-02-13T14:19:34.551Z,97732.95
2018-02-13T14:22:03.616Z,97726.79
2018-02-13T14:24:31.792Z,97723.15
2018-02-13T14:27:00.175Z,97723.83
2018-02-13T14:29:28.507Z,97723.83
2018-02-13T14:31:56.811Z,97715.80
2018-02-13T14:34:25.231Z,97719.95
2018-02-13T14:36:54.302Z,97711.50
2018-02-13T14:39:22.603Z,97704.07
2018-02-13T14:41:51.695Z,97699.70
2018-02-13T14:44:20.763Z,97706.05
2018-02-13T14:46:49.141Z,97706.73
2018-02-13T14:49:17.437Z,97694.95
2018-02-13T14:51:45.747Z,97698.15
2018-02-13T14:54:14.079Z,97694.72
2018-02-13T14:56:42.380Z,97696.02
2018-02-13T14:59:10.688Z,97698.80
2018-02-13T15:01:39.107Z,97702.58
2018-02-13T15:04:07.409Z,97699.36
2018-02-13T15:06:36.517Z,97701.48
2018-02-13T15:09:04.850Z,97694.72
2018-02-13T15:11:33.171Z,97700.57
2018-02-13T15:14:01.467Z,97698.13
2018-02-13T15:16:29.820Z,97698.14
2018-02-13T15:18:58.875Z,97701.41
2018-02-13T15:21:27.220Z,97686.11
2018-02-13T15:23:55.570Z,97686.92
2018-02-13T15:26:23.870Z,97690.66
2018-02-13T15:28:52.175Z,97684.47
2018-02-13T15:31:20.527Z,97686.92
2018-02-13T15:33:48.823Z,97683.37
2018-02-13T15:36:17.128Z,97680.30
2018-02-13T15:38:45.503Z,97686.66
2018-02-13T15:41:13.808Z,97692.67
2018-02-13T15:43:42.884Z,97690.35
2018-02-13T15:46:11.242Z,97687.22
2018-02-13T15:48:39.557Z,97685.22
2018-02-13T15:51:07.877Z,97685.98
2018-02-13T15:53:36.206Z,97681.91
2018-02-13T15:56:05.771Z,97687.65
2018-02-13T15:58:34.094Z,97686.68
2018-02-13T16:01:02.411Z,97683.48
2018-02-13T16:03:30.954Z,97682.69
2018-02-13T16:06:00.032Z,97682.09
2018-02-13T16:08:28.375Z,97685.44
2018-02-13T16:10:56.740Z,97686.34
2018-02-13T16:13:25.384Z,97680.55
2018-02-13T16:15:53.700Z,97679.77
2018-02-13T16:18:22.215Z,97679.11
2018-02-13T16:20:51.768Z,97678.73
2018-02-13T16:23:20.615Z,97679.38
2018-02-13T16:25:48.931Z,97687.27
2018-02-13T16:28:17.244Z,97685.11
2018-02-13T16:30:46.060Z,97678.13
2018-02-13T16:33:14.372Z,97679.52
2018-02-13T16:35:42.689Z,97676.09
2018-02-13T16:38:11.086Z,97683.10
2018-02-13T16:40:39.400Z,97686.88
2018-02-13T16:43:07.706Z,97681.64
2018-02-13T16:45:36.887Z,97686.17
2018-02-13T16:48:06.319Z,97676.11
2018-02-13T16:50:34.632Z,97684.46
2018-02-13T16:53:02.972Z,97679.96
2018-02-13T16:55:31.276Z,97685.20
2018-02-13T16:57:59.604Z,97683.05
2018-02-13T17:00:27.959Z,97682.91
2018-02-13T17:02:56.372Z,97685.42
2018-02-13T17:05:24.694Z,97681.12
2018-02-13T17:07:53.057Z,97682.80
2018-02-13T17:10:21.408Z,97681.52
2018-02-13T17:12:49.763Z,97679.38
2018-02-13T17:15:18.134Z,97684.94
2018-02-13T17:17:46.451Z,97685.80
2018-02-13T17:20:14.815Z,97687.70
2018-02-13T17:22:48.753Z,97683.28
2018-02-13T17:25:17.075Z,97691.95
2018-02-13T17:27:44.924Z,97698.30
2018-02-13T17:30:13.235Z,97700.28
2018-02-13T17:32:41.555Z,97698.14
2018-02-13T17:35:09.902Z,97693.27
2018-02-13T17:37:38.983Z,97694.31
2018-02-13T17:40:07.359Z,97693.04
2018-02-13T17:42:35.679Z,97691.74
2018-02-13T17:45:03.992Z,97692.45
2018-02-13T17:47:32.365Z,97699.66
2018-02-13T17:50:00.676Z,97694.97
2018-02-13T17:52:28.987Z,97702.28
2018-02-13T17:54:57.367Z,97702.65
2018-02-13T17:57:25.688Z,97701.51
2018-02-13T17:59:54.002Z,97708.44
2018-02-13T18:02:22.359Z,97705.94
2018-02-13T18:04:50.679Z,97707.00
2018-02-13T18:07:19.008Z,97701.09
2018-02-13T18:09:47.388Z,97706.48
2018-02-13T18:12:15.708Z,97700.42
2018-02-13T18:14:44.025Z,97717.82
2018-02-13T18:17:12.427Z,97721.00
2018-02-13T18:19:40.755Z,97720.18
2018-02-13T18:22:09.150Z,97725.41
2018-02-13T18:24:37.522Z,97716.84
2018-02-13T18:27:05.906Z,97720.79
2018-02-13T18:29:34.272Z,97725.30
2018-02-13T18:32:02.585Z,97723.95
2018-02-13T18:34:30.896Z,97722.84
2018-02-13T18:36:59.621Z,97723.87
2018-02-13T18:39:27.931Z,97728.11
2018-02-13T18:41:56.256Z,97729.60
2018-02-13T18:44:24.622Z,97726.02
2018-02-13T18:46:52.939Z,97729.71
2018-02-13T18:49:21.262Z,97727.42
2018-02-13T18:51:50.599Z,97727.78
2018-02-13T18:54:18.747Z,97730.05
2018-02-13T18:56:47.246Z,97728.98
2018-02-13T18:59:15.395Z,97728.34
2018-02-13T19:01:43.735Z,97733.12
2018-02-13T19:04:12.203Z,97731.02
2018-02-13T19:06:40.510Z,97731.70
2018-02-13T19:09:08.863Z,97733.38
2018-02-13T19:11:37.271Z,97735.34
2018-02-13T19:14:05.587Z,97732.89
2018-02-13T19:16:33.904Z,97737.27
2018-02-13T19:19:02.266Z,97730.74
2018-02-13T19:21:30.591Z,97726.93
2018-02-13T19:23:58.915Z,97727.14
2018-02-13T19:26:27.279Z,97723.06
2018-02-13T19:28:55.591Z,97724.32
2018-02-13T19:31:23.902Z,97720.92
2018-02-13T19:33:52.293Z,97723.27
2018-02-13T19:36:21.388Z,97725.02
2018-02-13T19:38:50.494Z,97718.19
2018-02-13T19:41:19.939Z,97719.15
2018-02-13T19:43:48.242Z,97715.61
2018-02-13T19:46:16.655Z,97714.55
2018-02-13T19:48:44.979Z,97716.81
2018-02-13T19:51:13.620Z,97710.91
2018-02-13T19:53:42.000Z,97711.18
2018-02-13T19:56:11.067Z,97710.73
2018-02-13T19:58:39.488Z,97710.67
2018-02-13T20:01:07.800Z,97704.21
2018-02-13T20:03:36.171Z,97708.91
2018-02-13T20:06:04.812Z,97702.16
2018-02-13T20:08:33.127Z,97710.73
2018-02-13T20:11:01.511Z,97707.37
2018-02-13T20:13:29.827Z,97711.14
2018-02-13T20:15:58.134Z,97706.63
2018-02-13T20:18:26.521Z,97709.09
2018-02-13T20:20:54.868Z,97705.91
2018-02-13T20:23:23.335Z,97706.70
2018-02-13T20:25:51.699Z,97705.85
2018-02-13T20:28:20.022Z,97706.86
2018-02-13T20:30:48.451Z,97714.72
2018-02-13T20:33:16.768Z,97714.76
2018-02-13T20:35:45.419Z,97713.19
2018-02-13T20:38:13.800Z,97715.37
2018-02-13T20:40:42.328Z,97712.80
2018-02-13T20:43:10.779Z,97710.59
2018-02-13T20:45:39.074Z,97714.97
2018-02-13T20:48:08.165Z,97713.00
2018-02-13T20:50:37.322Z,97711.00
2018-02-13T20:53:05.641Z,97708.28
2018-02-13T20:55:33.964Z,97709.09
2018-02-13T20:58:02.323Z,97705.52
2018-02-13T21:00:30.639Z,97707.46
2018-02-13T21:02:58.959Z,97706.92
2018-02-13T21:05:27.123Z,97707.03
2018-02-13T21:07:56.204Z,97704.44
2018-02-13T21:10:24.555Z,97707.62
2018-02-13T21:12:52.913Z,97710.15
2018-02-13T21:15:21.464Z,97708.97
2018-02-13T21:17:49.874Z,97709.59
2018-02-13T21:20:18.232Z,97705.78
2018-02-13T21:22:47.319Z,97708.51
2018-02-13T21:25:16.451Z,97706.29
2018-02-13T21:27:44.758Z,97710.12
2018-02-13T21:30:13.080Z,97710.70
2018-02-13T21:32:41.438Z,97713.55
2018-02-13T21:35:09.751Z,97716.13
2018-02-13T21:37:38.072Z,97706.86
2018-02-13T21:40:06.522Z,97706.92
2018-02-13T21:42:34.851Z,97710.34
2018-02-13T21:45:03.179Z,97705.20
2018-02-13T21:47:31.547Z,97709.65
2018-02-13T21:49:59.860Z,97705.98
2018-02-13T21:52:28.190Z,97703.91
2018-02-13T21:54:56.621Z,97701.78
2018-02-13T21:57:24.768Z,97702.34
2018-02-13T21:59:53.088Z,97698.67
2018-02-13T22:02:21.407Z,97702.89
2018-02-13T22:04:49.776Z,97707.16
2018-02-13T22:07:18.528Z,97709.88
2018-02-13T22:09:46.867Z,97705.16
2018-02-13T22:12:15.388Z,97703.03
2018-02-13T22:14:43.746Z,97703.69
2018-02-13T22:17:12.372Z,97709.75
2018-02-13T22:19:41.331Z,97708.64
2018-02-13T22:22:09.748Z,97712.21
2018-02-13T22:24:38.706Z,97713.27
2018-02-13T22:27:07.731Z,97715.88
2018-02-13T22:29:36.051Z,97717.19
2018-02-13T22:32:05.347Z,97725.44
2018-02-13T22:34:33.822Z,97726.03
2018-02-13T22:37:02.130Z,97736.92
2018-02-13T22:39:30.442Z,97733.48
2018-02-13T22:41:59.579Z,97741.59
2018-02-13T22:44:27.899Z,97742.47
2018-02-13T22:46:56.219Z,97748.52
2018-02-13T22:49:24.735Z,97747.84
2018-02-13T22:51:53.051Z,97757.13
2018-02-13T22:54:22.138Z,97753.34
2018-02-13T22:56:51.343Z,97755.92
2018-02-13T22:59:19.663Z,97754.41
2018-02-13T23:01:47.980Z,97750.30
2018-02-13T23:04:16.363Z,97749.53
2018-02-13T23:06:44.676Z,97753.50
2018-02-13T23:09:13.821Z,97755.32
2018-02-13T23:11:42.283Z,97755.72
2018-02-13T23:14:10.600Z,97756.80
2018-02-13T23:16:38.923Z,97758.70
2018-02-13T23:19:07.292Z,97754.39
2018-02-13T23:21:35.923Z,97752.05
2018-02-13T23:24:04.245Z,97759.02
2018-02-13T23:26:32.564Z,97757.77
2018-02-13T23:29:00.924Z,97754.94
2018-02-13T23:31:29.243Z,97755.27
2018-02-13T23:33:57.550Z,97753.53
2018-02-13T23:36:26.388Z,97757.89
2018-02-13T23:38:54.703Z,97755.88
2018-02-13T23:41:23.083Z,97763.53
2018-02-13T23:43:52.173Z,97765.44
2018-02-13T23:46:21.255Z,97767.11
2018-02-13T23:48:49.611Z,97759.52
2018-02-13T23:51:17.941Z,97767.37
2018-02-13T23:53:46.252Z,97764.89
2018-02-13T23:56:14.604Z,97764.15
2018-02-13T23:58:43.380Z,97768.32
